Time;durP1;ratioP1;P1;durP2;ratioP2;P2;SDS_P1;SDS_P2;PMS_P1;PMS_P2;Temp;Humidity;BMP_temperature;BMP_pressure;BME280_temperature;BME280_humidity;BME280_pressure;Samples;Min_cycle;Max_cycle;Signal;HPM_P1;HPM_P2
2022/08/27 00:02:24;;;;;;;;;;;;;;;24.20;74.28;99679.84;5016778;28;19913;-81
2022/08/27 00:04:50;;;;;;;;;;;;;;;24.21;74.10;99681.41;5015493;28;20309;-81
2022/08/27 00:07:16;;;;;;;;;;;;;;;24.26;74.15;99682.84;5015994;28;20063;-82
2022/08/27 00:09:41;;;;;;;;;;;;;;;24.21;74.11;99675.72;4999911;28;19924;-81
2022/08/27 00:12:07;;;;;;;;;;;;;;;24.26;73.56;99677.94;5016374;28;19913;-82
2022/08/27 00:14:33;;;;;;;;;;;;;;;24.26;73.94;99671.47;5032717;28;19963;-81
2022/08/27 00:16:59;;;;;;;;;;;;;;;24.20;74.26;99679.03;5016187;28;19924;-81
2022/08/27 00:19:24;;;;;;;;;;;;;;;24.14;74.37;99673.19;5015884;28;19920;-81
2022/08/27 00:21:50;;;;;;;;;;;;;;;24.13;74.97;99679.31;5016462;28;19913;-81
2022/08/27 00:24:15;;;;;;;;;;;;;;;24.08;75.01;99669.38;5015437;28;20286;-82
2022/08/27 00:26:41;;;;;;;;;;;;;;;24.10;74.93;99674.59;5015910;28;19920;-83
2022/08/27 00:29:09;;;;;;;;;;;;;;;24.09;75.05;99667.31;5016159;28;19914;-81
2022/08/27 00:31:34;;;;;;;;;;;;;;;24.10;75.09;99680.28;5016742;28;19913;-82
2022/08/27 00:34:00;;;;;;;;;;;;;;;24.02;75.33;99660.69;5015764;28;20306;-82
2022/08/27 00:36:26;;;;;;;;;;;;;;;23.96;75.20;99665.38;5016383;28;19917;-81
2022/08/27 00:38:51;;;;;;;;;;;;;;;23.94;75.68;99672.78;5016074;28;19913;-82
2022/08/27 00:41:18;;;;;;;;;;;;;;;23.93;75.62;99662.69;5018977;28;19920;-82
2022/08/27 00:43:45;;;;;;;;;;;;;;;23.86;75.62;99668.63;5038231;28;20335;-82
2022/08/27 00:46:15;;;;;;;;;;;;;;;23.90;76.11;99663.59;5019691;28;19920;-82
2022/08/27 00:48:40;;;;;;;;;;;;;;;23.92;76.21;99669.63;5019815;28;19959;-82
2022/08/27 00:51:06;;;;;;;;;;;;;;;23.90;76.60;99667.22;5019694;28;20007;-82
2022/08/27 00:53:32;;;;;;;;;;;;;;;23.87;76.60;99665.34;5019408;28;19949;-82
2022/08/27 00:56:01;;;;;;;;;;;;;;;23.90;76.52;99661.56;5020084;28;20255;-81
2022/08/27 00:58:26;;;;;;;;;;;;;;;23.89;76.50;99657.13;5019275;28;20018;-82
2022/08/27 01:00:52;;;;;;;;;;;;;;;23.89;76.34;99665.66;5019187;28;20336;-81
2022/08/27 01:03:17;;;;;;;;;;;;;;;23.92;76.71;99659.06;5019689;28;19925;-81
2022/08/27 01:05:44;;;;;;;;;;;;;;;23.91;76.92;99663.13;5019183;28;19921;-80
2022/08/27 01:08:12;;;;;;;;;;;;;;;23.88;77.41;99664.09;5019601;28;19960;-82
2022/08/27 01:10:38;;;;;;;;;;;;;;;23.89;77.30;99665.66;5019287;28;20306;-81
2022/08/27 01:13:05;;;;;;;;;;;;;;;23.88;76.85;99664.09;5019037;28;19959;-82
2022/08/27 01:15:31;;;;;;;;;;;;;;;23.81;77.15;99672.91;5019291;28;19968;-82
2022/08/27 01:17:56;;;;;;;;;;;;;;;23.84;77.18;99666.25;5019420;28;19920;-82
2022/08/27 01:20:24;;;;;;;;;;;;;;;23.82;77.18;99665.16;5018851;28;20335;-82
2022/08/27 01:23:08;;;;;;;;;;;;;;;23.71;77.64;99674.09;5018561;28;20390;-82
2022/08/27 01:25:33;;;;;;;;;;;;;;;23.78;77.24;99659.63;5019344;28;20278;-82
2022/08/27 01:28:00;;;;;;;;;;;;;;;23.76;77.45;99662.13;5018110;28;19924;-82
2022/08/27 01:30:25;;;;;;;;;;;;;;;23.64;77.84;99655.28;5018660;28;19971;-81
2022/08/27 01:32:51;;;;;;;;;;;;;;;23.57;78.47;99651.91;5018681;28;19964;-81
2022/08/27 01:35:18;;;;;;;;;;;;;;;23.67;78.16;99667.75;5018643;28;19940;-82
2022/08/27 01:37:45;;;;;;;;;;;;;;;23.65;78.15;99668.25;5002723;28;19924;-82
2022/08/27 01:40:13;;;;;;;;;;;;;;;23.70;77.62;99664.78;5018489;28;19920;-82
2022/08/27 01:42:40;;;;;;;;;;;;;;;23.68;77.65;99663.66;5018989;28;19913;-83
2022/08/27 01:45:14;;;;;;;;;;;;;;;23.65;77.58;99661.75;5019047;28;20314;-83
2022/08/27 01:47:40;;;;;;;;;;;;;;;23.62;77.53;99662.66;5018408;28;20004;-80
2022/08/27 01:50:10;;;;;;;;;;;;;;;23.61;78.14;99661.88;5018847;28;20004;-83
2022/08/27 01:52:35;;;;;;;;;;;;;;;23.61;78.19;99666.75;5036081;28;19948;-82
2022/08/27 01:55:01;;;;;;;;;;;;;;;23.61;78.06;99667.56;5018636;28;19916;-81
2022/08/27 01:57:27;;;;;;;;;;;;;;;23.60;77.81;99663.13;5018572;28;19913;-82
2022/08/27 01:59:55;;;;;;;;;;;;;;;23.66;77.34;99661.28;5018584;28;19917;-83
2022/08/27 02:02:21;;;;;;;;;;;;;;;23.61;77.23;99659.03;5036563;28;19913;-81
2022/08/27 02:04:46;;;;;;;;;;;;;;;23.58;77.63;99656.31;5018662;28;20271;-80
2022/08/27 02:07:14;;;;;;;;;;;;;;;23.61;77.18;99650.50;5018915;28;20328;-83
2022/08/27 02:09:39;;;;;;;;;;;;;;;23.59;77.28;99655.06;5017994;28;19913;-82
2022/08/27 02:12:05;;;;;;;;;;;;;;;23.60;76.93;99654.63;5018064;28;19939;-82
2022/08/27 02:14:30;;;;;;;;;;;;;;;23.61;76.84;99649.72;5018284;28;19983;-82
2022/08/27 02:16:56;;;;;;;;;;;;;;;23.55;77.20;99657.25;5018167;28;19913;-83
2022/08/27 02:19:21;;;;;;;;;;;;;;;23.53;77.22;99649.19;5018075;28;20027;-82
2022/08/27 02:21:49;;;;;;;;;;;;;;;23.49;77.35;99649.34;5018107;28;19913;-82
2022/08/27 02:24:15;;;;;;;;;;;;;;;23.49;77.21;99649.34;5002875;28;19917;-82
2022/08/27 02:26:40;;;;;;;;;;;;;;;23.46;77.47;99655.94;5018295;28;20000;-82
2022/08/27 02:29:05;;;;;;;;;;;;;;;23.45;77.45;99648.69;5018260;28;19919;-82
2022/08/27 02:31:31;;;;;;;;;;;;;;;23.45;77.14;99654.38;5017943;28;19948;-82
2022/08/27 02:33:56;;;;;;;;;;;;;;;23.40;77.47;99657.81;5018490;28;19913;-82
2022/08/27 02:36:22;;;;;;;;;;;;;;;23.40;77.44;99654.97;5017813;28;19913;-82
2022/08/27 02:38:48;;;;;;;;;;;;;;;23.37;77.83;99664.38;5018014;28;20368;-82
2022/08/27 02:41:15;;;;;;;;;;;;;;;23.37;77.86;99658.72;5017757;28;19913;-82
2022/08/27 02:43:40;;;;;;;;;;;;;;;23.38;77.95;99659.50;5017404;28;19913;-82
2022/08/27 02:46:06;;;;;;;;;;;;;;;23.38;77.94;99660.28;5017715;28;19920;-82
2022/08/27 02:48:34;;;;;;;;;;;;;;;23.37;78.70;99663.59;5017481;28;20343;-82
2022/08/27 02:50:59;;;;;;;;;;;;;;;23.30;78.07;99659.00;5017137;28;19917;-83
2022/08/27 02:53:25;;;;;;;;;;;;;;;23.32;78.18;99662.16;5017144;28;19917;-82
2022/08/27 02:55:51;;;;;;;;;;;;;;;23.30;77.50;99661.03;5017189;28;19976;-82
2022/08/27 02:58:18;;;;;;;;;;;;;;;23.30;77.34;99659.00;5034700;28;19913;-82
2022/08/27 03:00:44;;;;;;;;;;;;;;;23.29;77.37;99657.41;5016352;28;19913;-83
2022/08/27 03:03:09;;;;;;;;;;;;;;;23.23;77.51;99656.44;5016341;28;19913;-83
2022/08/27 03:05:35;;;;;;;;;;;;;;;23.20;78.01;99663.03;5017463;28;19923;-83
2022/08/27 03:08:02;;;;;;;;;;;;;;;23.18;77.93;99657.03;5017085;28;19953;-82
2022/08/27 03:10:27;;;;;;;;;;;;;;;23.16;77.81;99659.50;5017361;28;19913;-82
2022/08/27 03:12:53;;;;;;;;;;;;;;;23.11;78.52;99658.06;5016896;28;20271;-82
2022/08/27 03:15:18;;;;;;;;;;;;;;;23.13;78.50;99649.09;5016271;28;20004;-82
2022/08/27 03:20:28;;;;;;;;;;;;;;;23.09;78.89;99663.41;5034620;28;19920;-82
2022/08/27 03:22:53;;;;;;;;;;;;;;;23.05;78.89;99670.47;5016606;28;19913;-82
2022/08/27 03:25:19;;;;;;;;;;;;;;;22.98;79.08;99666.63;5017199;28;19928;-82
2022/08/27 03:27:44;;;;;;;;;;;;;;;22.97;79.53;99664.28;5016644;28;20260;-82
2022/08/27 03:30:14;;;;;;;;;;;;;;;22.94;79.66;99673.69;5016507;28;19913;-82
2022/08/27 03:32:39;;;;;;;;;;;;;;;22.99;80.50;99668.22;5034590;28;20263;-82
2022/08/27 03:35:05;;;;;;;;;;;;;;;23.01;80.52;99670.63;5016592;28;19917;-82
2022/08/27 03:37:30;;;;;;;;;;;;;;;23.12;79.92;99667.38;5016644;28;19975;-82
2022/08/27 03:39:56;;;;;;;;;;;;;;;23.12;80.41;99661.72;5016261;28;20370;-81
2022/08/27 03:42:21;;;;;;;;;;;;;;;23.08;80.46;99669.56;5015935;28;19980;-83
2022/08/27 03:44:47;;;;;;;;;;;;;;;23.07;80.35;99674.44;5016609;28;20355;-83
2022/08/27 03:47:13;;;;;;;;;;;;;;;23.06;80.96;99666.38;5016591;28;19920;-82
2022/08/27 03:49:44;;;;;;;;;;;;;;;23.06;80.72;99672.84;5016890;28;20011;-83
2022/08/27 03:52:10;;;;;;;;;;;;;;;23.02;81.04;99671.41;5016628;28;20248;-83
2022/08/27 03:54:36;;;;;;;;;;;;;;;22.96;80.94;99671.19;5016488;28;19967;-82
2022/08/27 03:57:02;;;;;;;;;;;;;;;23.00;80.83;99664.13;5016252;28;19917;-82
2022/08/27 03:59:27;;;;;;;;;;;;;;;22.96;81.58;99668.38;5015908;28;19923;-81
2022/08/27 04:01:53;;;;;;;;;;;;;;;22.92;81.68;99671.31;5016316;28;19987;-82
2022/08/27 04:04:20;;;;;;;;;;;;;;;22.98;81.71;99671.53;5033805;28;19913;-83
2022/08/27 04:06:48;;;;;;;;;;;;;;;22.98;81.43;99675.16;5016069;28;19913;-83
2022/08/27 04:09:13;;;;;;;;;;;;;;;22.94;81.72;99677.31;5016236;28;19920;-83
2022/08/27 04:11:38;;;;;;;;;;;;;;;22.93;81.53;99681.41;5016069;28;19913;-83
2022/08/27 04:14:05;;;;;;;;;;;;;;;22.93;81.62;99674.94;5016911;28;19920;-82
2022/08/27 04:16:34;;;;;;;;;;;;;;;22.88;81.49;99687.66;5020049;28;19920;-83
2022/08/27 04:18:59;;;;;;;;;;;;;;;22.89;81.70;99692.09;5020294;28;20385;-81
2022/08/27 04:21:25;;;;;;;;;;;;;;;22.91;81.39;99700.16;5020102;28;19917;-81
2022/08/27 04:23:52;;;;;;;;;;;;;;;22.92;81.39;99696.06;5020473;28;19913;-81
2022/08/27 04:26:18;;;;;;;;;;;;;;;22.97;80.89;99698.31;5037667;28;19967;-82
2022/08/27 04:28:43;;;;;;;;;;;;;;;22.97;80.38;99704.78;5037530;28;19913;-83
2022/08/27 04:31:09;;;;;;;;;;;;;;;23.06;79.80;99700.41;5020190;28;19920;-82
2022/08/27 04:33:34;;;;;;;;;;;;;;;23.02;80.05;99705.44;5019879;28;20083;-82
2022/08/27 04:36:01;;;;;;;;;;;;;;;23.00;80.58;99709.50;5019957;28;19917;-82
2022/08/27 04:38:29;;;;;;;;;;;;;;;22.95;80.78;99710.09;5037617;28;19928;-82
2022/08/27 04:43:40;;;;;;;;;;;;;;;23.00;81.26;99715.19;5037394;28;19920;-82
2022/08/27 04:46:06;;;;;;;;;;;;;;;23.07;80.86;99714.16;5019535;28;19917;-82
2022/08/27 04:48:31;;;;;;;;;;;;;;;23.14;81.06;99707.44;5019887;28;19920;-81
2022/08/27 04:50:56;;;;;;;;;;;;;;;23.29;80.61;99714.19;5019429;28;20412;-83
2022/08/27 04:53:22;;;;;;;;;;;;;;;23.55;79.40;99714.06;5019505;28;19913;-83
2022/08/27 04:55:49;;;;;;;;;;;;;;;23.87;77.47;99707.16;5019313;28;19913;-81
2022/08/27 04:58:19;;;;;;;;;;;;;;;24.13;76.54;99713.41;5019394;28;20007;-81
2022/08/27 05:00:53;;;;;;;;;;;;;;;24.41;74.81;99718.00;5019322;28;19917;-82
2022/08/27 05:03:21;;;;;;;;;;;;;;;24.70;73.73;99717.56;5003541;28;20355;-82
2022/08/27 05:05:47;;;;;;;;;;;;;;;25.08;71.93;99720.00;5036992;28;19914;-82
2022/08/27 05:08:12;;;;;;;;;;;;;;;25.49;70.77;99717.00;5019624;28;19913;-82
2022/08/27 05:10:42;;;;;;;;;;;;;;;25.91;69.40;99734.19;5019070;28;20000;-82
2022/08/27 05:13:07;;;;;;;;;;;;;;;26.37;67.43;99723.41;5037013;28;19913;-82
2022/08/27 05:15:33;;;;;;;;;;;;;;;26.84;65.64;99729.66;5019728;28;19913;-83
2022/08/27 05:17:59;;;;;;;;;;;;;;;27.23;63.98;99733.38;5018902;28;19913;-83
2022/08/27 05:20:28;;;;;;;;;;;;;;;27.73;62.26;99739.28;5019302;28;19913;-83
2022/08/27 05:22:54;;;;;;;;;;;;;;;28.16;60.25;99734.81;5018913;28;19964;-82
2022/08/27 05:25:19;;;;;;;;;;;;;;;28.49;59.10;99730.91;5035699;28;19917;-82
2022/08/27 05:27:44;;;;;;;;;;;;;;;28.56;58.98;99733.38;5014922;28;19917;-84
2022/08/27 05:30:11;;;;;;;;;;;;;;;28.87;57.54;99734.84;5038910;28;19917;-82
2022/08/27 05:32:36;;;;;;;;;;;;;;;28.79;57.81;99739.41;5017223;28;19913;-84
2022/08/27 05:35:01;;;;;;;;;;;;;;;28.32;59.36;99741.31;5018936;28;19920;-83
2022/08/27 05:37:27;;;;;;;;;;;;;;;28.31;59.83;99743.38;5019147;28;19913;-83
2022/08/27 05:39:52;;;;;;;;;;;;;;;27.98;60.98;99735.03;5018183;28;19936;-82
2022/08/27 05:42:18;;;;;;;;;;;;;;;27.63;61.39;99743.47;5018928;28;19913;-83
2022/08/27 05:44:43;;;;;;;;;;;;;;;27.47;62.74;99747.59;5018648;28;19964;-79
2022/08/27 05:47:09;;;;;;;;;;;;;;;28.44;60.36;99748.78;5022042;28;19913;-80
2022/08/27 05:49:34;;;;;;;;;;;;;;;29.20;57.61;99738.16;5019238;28;19921;-79
2022/08/27 05:52:00;;;;;;;;;;;;;;;29.54;58.29;99740.66;5018059;28;19913;-79
2022/08/27 05:54:25;;;;;;;;;;;;;;;29.82;54.96;99738.84;5018900;28;19963;-82
2022/08/27 05:56:50;;;;;;;;;;;;;;;29.51;55.81;99730.97;5019101;28;20016;-80
2022/08/27 06:02:03;;;;;;;;;;;;;;;29.61;54.11;99740.97;5036486;28;19920;-80
2022/08/27 06:04:28;;;;;;;;;;;;;;;29.39;55.98;99743.59;5018380;28;19959;-81
2022/08/27 06:06:54;;;;;;;;;;;;;;;30.09;53.91;99740.38;5018785;28;19948;-80
2022/08/27 06:09:21;;;;;;;;;;;;;;;29.86;54.05;99736.53;5018389;28;19913;-81
2022/08/27 06:11:47;;;;;;;;;;;;;;;29.69;54.41;99745.00;5036162;28;19913;-80
2022/08/27 06:14:12;;;;;;;;;;;;;;;29.95;54.26;99749.94;5036269;28;19975;-81
2022/08/27 06:16:38;;;;;;;;;;;;;;;30.24;53.15;99746.03;5035743;28;20363;-81
2022/08/27 06:19:04;;;;;;;;;;;;;;;30.55;52.57;99736.59;5017995;28;19913;-80
2022/08/27 06:21:33;;;;;;;;;;;;;;;30.23;52.98;99747.31;5018096;28;20209;-79
2022/08/27 06:23:58;;;;;;;;;;;;;;;30.03;53.74;99736.69;5017954;28;19956;-80
2022/08/27 06:26:24;;;;;;;;;;;;;;;29.92;53.47;99739.47;5017817;28;19944;-80
2022/08/27 06:28:51;;;;;;;;;;;;;;;30.30;52.79;99737.44;5017861;28;19963;-81
2022/08/27 06:31:18;;;;;;;;;;;;;;;29.87;54.26;99740.97;5017361;28;19956;-80
2022/08/27 06:33:45;;;;;;;;;;;;;;;30.33;51.80;99747.91;5017320;28;19963;-80
2022/08/27 06:36:12;;;;;;;;;;;;;;;30.49;52.72;99736.56;5035804;28;19976;-81
2022/08/27 06:38:37;;;;;;;;;;;;;;;29.91;53.13;99732.16;5016585;28;19914;-81
2022/08/27 06:41:06;;;;;;;;;;;;;;;30.08;54.02;99727.34;5017776;28;20320;-79
2022/08/27 06:43:34;;;;;;;;;;;;;;;30.24;52.98;99737.41;5035389;28;19952;-81
2022/08/27 06:46:03;;;;;;;;;;;;;;;30.06;53.37;99729.16;5017158;28;20007;-80
2022/08/27 06:48:28;;;;;;;;;;;;;;;30.26;53.12;99717.63;5016704;28;19917;-81
2022/08/27 06:50:54;;;;;;;;;;;;;;;30.50;51.50;99734.47;5035465;28;20266;-80
2022/08/27 06:53:21;;;;;;;;;;;;;;;30.84;51.73;99744.13;5034685;28;19913;-80
2022/08/27 06:55:47;;;;;;;;;;;;;;;31.30;49.31;99743.81;5018027;28;19913;-80
2022/08/27 06:58:13;;;;;;;;;;;;;;;31.90;49.06;99748.66;5017165;28;19913;-80
2022/08/27 07:00:39;;;;;;;;;;;;;;;32.24;47.38;99741.63;5017202;28;19964;-81
2022/08/27 07:03:06;;;;;;;;;;;;;;;32.25;48.24;99751.03;5017225;28;19975;-79
2022/08/27 07:05:33;;;;;;;;;;;;;;;31.67;49.71;99753.56;5017224;28;20004;-80
2022/08/27 07:07:59;;;;;;;;;;;;;;;32.09;47.39;99749.72;5014302;28;19924;-79
2022/08/27 07:10:24;;;;;;;;;;;;;;;31.68;49.45;99750.16;5002554;28;19917;-79
2022/08/27 07:12:52;;;;;;;;;;;;;;;31.16;50.40;99747.66;5018164;28;19959;-82
2022/08/27 07:15:18;;;;;;;;;;;;;;;31.45;50.08;99745.69;5017370;28;19919;-76
2022/08/27 07:17:43;;;;;;;;;;;;;;;31.85;49.79;99740.81;5017320;28;20332;-77
2022/08/27 07:20:13;;;;;;;;;;;;;;;31.48;49.66;99754.06;5016871;28;20382;-77
2022/08/27 07:22:39;;;;;;;;;;;;;;;31.40;50.45;99755.06;5016888;28;19913;-75
2022/08/27 07:25:05;;;;;;;;;;;;;;;32.57;47.26;99760.97;5017326;28;19964;-76
2022/08/27 07:27:30;;;;;;;;;;;;;;;32.26;48.45;99761.22;5016997;28;20307;-77
2022/08/27 07:29:57;;;;;;;;;;;;;;;32.17;48.12;99761.50;5016214;28;19917;-75
2022/08/27 07:32:22;;;;;;;;;;;;;;;32.51;47.47;99765.97;5033851;28;20004;-78
2022/08/27 07:34:48;;;;;;;;;;;;;;;32.82;46.79;99759.09;5015736;28;20000;-76
2022/08/27 07:37:13;;;;;;;;;;;;;;;32.71;46.42;99769.88;5016386;28;19913;-77
2022/08/27 07:39:39;;;;;;;;;;;;;;;31.87;48.48;99769.84;5016108;28;19913;-75
2022/08/27 07:44:48;;;;;;;;;;;;;;;32.49;46.84;99767.78;5034200;28;19919;-78
2022/08/27 07:47:14;;;;;;;;;;;;;;;32.01;46.90;99771.69;5016220;28;19999;-78
2022/08/27 07:49:39;;;;;;;;;;;;;;;32.16;47.09;99765.69;5016044;28;19913;-77
2022/08/27 07:52:05;;;;;;;;;;;;;;;32.27;47.31;99777.19;5016086;28;19940;-77
2022/08/27 07:54:30;;;;;;;;;;;;;;;31.74;47.74;99776.84;5034119;28;19947;-76
2022/08/27 07:56:55;;;;;;;;;;;;;;;32.28;46.12;99781.63;5016612;28;19913;-77
2022/08/27 07:59:21;;;;;;;;;;;;;;;32.63;45.86;99775.34;5015721;28;20240;-78
2022/08/27 08:01:47;;;;;;;;;;;;;;;33.72;43.06;99778.94;5015959;28;19968;-75
2022/08/27 08:04:13;;;;;;;;;;;;;;;34.35;41.06;99780.84;5016195;28;19913;-77
2022/08/27 08:06:38;;;;;;;;;;;;;;;34.25;42.09;99779.63;5016441;28;20263;-77
2022/08/27 08:09:07;;;;;;;;;;;;;;;34.80;41.08;99786.22;5015993;28;19913;-77
2022/08/27 08:11:33;;;;;;;;;;;;;;;34.81;40.41;99793.56;5015925;28;20359;-77
2022/08/27 08:13:59;;;;;;;;;;;;;;;34.13;41.26;99781.03;5033287;28;20011;-78
2022/08/27 08:16:24;;;;;;;;;;;;;;;34.50;40.59;99774.69;5016220;28;20095;-78
2022/08/27 08:18:50;;;;;;;;;;;;;;;34.12;42.73;99771.59;5016374;28;19913;-77
2022/08/27 08:21:15;;;;;;;;;;;;;;;34.50;40.48;99771.03;5016011;28;20304;-77
2022/08/27 08:23:41;;;;;;;;;;;;;;;34.48;40.58;99768.69;5016190;28;19944;-78
2022/08/27 08:26:10;;;;;;;;;;;;;;;34.93;40.90;99777.66;5016450;28;19913;-77
2022/08/27 08:28:36;;;;;;;;;;;;;;;35.81;38.60;99779.22;5016300;28;20007;-79
2022/08/27 08:31:01;;;;;;;;;;;;;;;36.14;37.75;99777.16;5016714;28;19971;-77
2022/08/27 08:33:27;;;;;;;;;;;;;;;35.14;39.52;99780.09;5016100;28;19958;-76
2022/08/27 08:35:52;;;;;;;;;;;;;;;34.19;41.14;99778.09;5016161;28;19917;-76
2022/08/27 08:38:18;;;;;;;;;;;;;;;33.92;40.87;99779.84;5015935;28;19962;-77
2022/08/27 08:40:49;;;;;;;;;;;;;;;33.08;43.68;99778.97;5015838;28;19913;-76
2022/08/27 08:43:20;;;;;;;;;;;;;;;32.09;45.85;99784.25;5015719;28;19913;-76
2022/08/27 08:45:46;;;;;;;;;;;;;;;33.42;43.02;99780.94;5015188;28;19923;-77
2022/08/27 08:48:35;;;;;;;;;;;;;;;34.53;40.30;99775.75;5015959;28;19913;-78
2022/08/27 08:51:02;;;;;;;;;;;;;;;34.20;41.27;99771.81;5015571;28;20262;-78
2022/08/27 08:53:42;;;;;;;;;;;;;;;33.41;42.58;99770.69;5033792;28;19967;-75
2022/08/27 08:56:14;;;;;;;;;;;;;;;33.11;42.44;99763.47;5015841;28;19913;-76
2022/08/27 08:58:50;;;;;;;;;;;;;;;34.05;41.32;99765.63;5015708;28;20375;-78
2022/08/27 09:01:19;;;;;;;;;;;;;;;34.02;41.22;99767.47;5016589;28;19921;-76
2022/08/27 09:04:05;;;;;;;;;;;;;;;33.12;42.88;99767.13;5037573;28;19917;-77
2022/08/27 09:06:36;;;;;;;;;;;;;;;33.60;42.33;99774.53;5019027;28;19913;-75
2022/08/27 09:09:10;;;;;;;;;;;;;;;32.83;44.14;99775.06;5019148;28;19920;-77
2022/08/27 09:11:43;;;;;;;;;;;;;;;33.37;43.62;99768.09;5019976;28;19917;-76
2022/08/27 09:14:14;;;;;;;;;;;;;;;33.38;42.91;99773.31;5037195;28;19913;-75
2022/08/27 09:16:39;;;;;;;;;;;;;;;33.18;43.50;99773.66;5018964;28;19913;-76
2022/08/27 09:19:05;;;;;;;;;;;;;;;33.29;43.65;99779.41;5019383;28;19917;-76
2022/08/27 09:21:36;;;;;;;;;;;;;;;34.29;42.36;99779.31;5018830;28;19944;-77
2022/08/27 09:24:05;;;;;;;;;;;;;;;34.58;40.97;99784.34;5019007;28;19919;-74
2022/08/27 09:26:31;;;;;;;;;;;;;;;34.44;40.88;99778.94;5019354;28;19913;-76
2022/08/27 09:29:17;;;;;;;;;;;;;;;34.96;40.31;99789.50;5036814;28;19913;-77
2022/08/27 09:31:57;;;;;;;;;;;;;;;34.67;40.31;99780.31;5019360;28;20220;-75
2022/08/27 09:34:23;;;;;;;;;;;;;;;35.58;38.63;99777.97;5019444;28;19964;-76
2022/08/27 09:36:49;;;;;;;;;;;;;;;36.12;37.46;99785.63;5018843;28;19913;-78
2022/08/27 09:39:15;;;;;;;;;;;;;;;34.92;39.12;99778.22;5019272;28;19913;-77
2022/08/27 09:41:51;;;;;;;;;;;;;;;35.17;39.03;99782.69;5019143;28;20358;-76
2022/08/27 09:44:18;;;;;;;;;;;;;;;36.50;36.46;99782.63;5018998;28;19913;-76
2022/08/27 09:46:50;;;;;;;;;;;;;;;36.84;35.89;99786.47;5019287;28;20260;-76
2022/08/27 09:49:17;;;;;;;;;;;;;;;36.40;36.22;99782.25;5019212;28;20283;-76
2022/08/27 09:51:44;;;;;;;;;;;;;;;35.41;38.20;99781.84;5018635;28;19936;-77
2022/08/27 09:54:10;;;;;;;;;;;;;;;35.84;37.34;99775.22;5018437;28;19928;-76
2022/08/27 09:56:35;;;;;;;;;;;;;;;35.80;37.50;99779.78;5036530;28;19916;-76
2022/08/27 09:59:06;;;;;;;;;;;;;;;36.15;36.57;99778.72;5018439;28;19933;-75
2022/08/27 10:01:33;;;;;;;;;;;;;;;36.30;35.94;99778.22;5018020;28;19920;-75
2022/08/27 10:04:22;;;;;;;;;;;;;;;36.16;35.89;99786.06;5018536;28;20007;-75
2022/08/27 10:06:49;;;;;;;;;;;;;;;35.26;38.10;99778.59;5035567;28;19923;-76
2022/08/27 10:09:20;;;;;;;;;;;;;;;35.60;37.36;99769.53;5035952;28;19913;-77
2022/08/27 10:11:56;;;;;;;;;;;;;;;34.86;38.76;99784.06;5018397;28;19917;-77
2022/08/27 10:14:30;;;;;;;;;;;;;;;35.07;39.05;99774.91;5018056;28;19920;-75
2022/08/27 10:17:03;;;;;;;;;;;;;;;36.11;36.23;99786.94;5024738;28;20271;-77
2022/08/27 10:19:38;;;;;;;;;;;;;;;36.20;37.34;99789.41;5022566;28;19913;-77
2022/08/27 10:22:03;;;;;;;;;;;;;;;35.91;36.88;99783.28;5018264;28;19924;-75
2022/08/27 10:24:34;;;;;;;;;;;;;;;36.06;37.09;99784.91;5015989;28;19913;-77
2022/08/27 10:27:18;;;;;;;;;;;;;;;35.30;37.39;99769.63;4997879;28;19913;-77
2022/08/27 10:29:46;;;;;;;;;;;;;;;35.25;37.93;99773.38;5015879;28;19921;-76
2022/08/27 10:32:11;;;;;;;;;;;;;;;34.83;37.17;99772.78;4998256;28;20378;-76
2022/08/27 10:34:43;;;;;;;;;;;;;;;34.11;40.37;99777.91;4998064;28;19914;-76
2022/08/27 10:37:17;;;;;;;;;;;;;;;34.65;38.78;99774.28;4998129;28;19961;-76
2022/08/27 10:40:01;;;;;;;;;;;;;;;34.58;39.32;99777.78;4997786;28;19913;-76
2022/08/27 10:42:41;;;;;;;;;;;;;;;35.51;37.30;99781.47;4997831;28;19921;-78
2022/08/27 10:45:22;;;;;;;;;;;;;;;35.18;38.29;99783.47;4997786;28;20355;-75
2022/08/27 10:47:47;;;;;;;;;;;;;;;34.90;37.69;99778.75;4997056;28;19913;-76
2022/08/27 10:50:33;;;;;;;;;;;;;;;35.14;38.79;99771.41;4997652;28;19920;-75
2022/08/27 10:53:07;;;;;;;;;;;;;;;35.25;38.07;99774.16;4990149;28;19972;-79
2022/08/27 10:55:36;;;;;;;;;;;;;;;34.73;39.24;99766.59;4997508;28;19964;-77
2022/08/27 10:58:14;;;;;;;;;;;;;;;34.45;39.45;99774.75;5013776;28;19913;-75
2022/08/27 11:00:52;;;;;;;;;;;;;;;34.21;39.40;99770.47;4997580;28;19925;-74
2022/08/27 11:03:20;;;;;;;;;;;;;;;34.74;39.24;99765.28;4997531;28;19914;-76
2022/08/27 11:05:48;;;;;;;;;;;;;;;35.30;39.02;99775.41;5016041;28;19917;-77
2022/08/27 11:08:28;;;;;;;;;;;;;;;35.06;39.66;99773.38;4997547;28;19921;-76
2022/08/27 11:10:56;;;;;;;;;;;;;;;34.06;41.00;99770.06;4999659;28;20355;-76
2022/08/27 11:13:50;;;;;;;;;;;;;;;34.88;39.34;99780.63;5012080;28;19917;-76
2022/08/27 11:16:19;;;;;;;;;;;;;;;35.15;39.46;99778.75;5021232;28;19923;-76
2022/08/27 11:18:50;;;;;;;;;;;;;;;34.27;41.79;99774.09;5016957;28;19952;-76
2022/08/27 11:21:24;;;;;;;;;;;;;;;34.40;40.32;99771.34;5017593;28;19959;-75
2022/08/27 11:23:57;;;;;;;;;;;;;;;34.13;41.77;99781.03;5016455;28;19913;-74
2022/08/27 11:26:23;;;;;;;;;;;;;;;34.91;40.48;99771.66;5016949;28;19944;-78
2022/08/27 11:28:52;;;;;;;;;;;;;;;35.03;39.63;99771.53;5016924;28;19967;-77
2022/08/27 11:31:19;;;;;;;;;;;;;;;34.61;40.68;99762.25;5017378;28;19963;-77
2022/08/27 11:33:45;;;;;;;;;;;;;;;34.83;40.72;99767.78;5016693;28;19955;-76
2022/08/27 11:36:32;;;;;;;;;;;;;;;34.77;40.13;99761.28;5034145;28;19966;-77
2022/08/27 11:39:00;;;;;;;;;;;;;;;33.18;43.65;99765.00;5016634;28;20394;-77
2022/08/27 11:41:26;;;;;;;;;;;;;;;33.63;42.69;99759.84;5017556;28;19920;-77
2022/08/27 11:43:52;;;;;;;;;;;;;;;32.89;44.34;99751.25;5017565;28;19956;-76
2022/08/27 11:46:25;;;;;;;;;;;;;;;32.47;44.52;99756.78;5034948;28;20343;-74
2022/08/27 11:48:58;;;;;;;;;;;;;;;32.95;43.74;99744.16;5016973;28;19956;-77
2022/08/27 11:51:32;;;;;;;;;;;;;;;33.04;44.14;99740.97;5017178;28;20015;-76
2022/08/27 11:54:01;;;;;;;;;;;;;;;33.67;42.20;99750.13;5034610;28;19913;-76
2022/08/27 11:56:32;;;;;;;;;;;;;;;33.24;43.15;99742.72;5017318;28;19999;-74
2022/08/27 11:59:10;;;;;;;;;;;;;;;33.19;43.60;99751.41;5016203;28;19916;-76
2022/08/27 12:01:37;;;;;;;;;;;;;;;33.11;43.72;99739.63;5016302;28;20011;-76
2022/08/27 12:04:05;;;;;;;;;;;;;;;33.03;43.99;99741.50;5034417;28;19971;-76
2022/08/27 12:06:44;;;;;;;;;;;;;;;32.24;44.85;99743.72;5016372;28;19920;-76
2022/08/27 12:09:18;;;;;;;;;;;;;;;33.19;43.34;99734.13;5017068;28;20007;-75
2022/08/27 12:11:53;;;;;;;;;;;;;;;33.58;41.83;99736.81;5023951;28;20315;-76
2022/08/27 12:14:25;;;;;;;;;;;;;;;33.55;42.17;99726.31;5013468;28;19914;-75
2022/08/27 12:17:15;;;;;;;;;;;;;;;33.01;42.85;99724.72;5010908;28;19924;-75
2022/08/27 12:20:04;;;;;;;;;;;;;;;33.03;43.02;99718.47;5012838;28;19924;-76
2022/08/27 12:25:30;;;;;;;;;;;;;;;33.37;41.12;99722.72;5014108;28;19925;-75
2022/08/27 12:28:04;;;;;;;;;;;;;;;33.82;40.34;99722.47;5013668;28;20369;-75
2022/08/27 12:31:05;;;;;;;;;;;;;;;33.99;39.93;99716.59;5012927;28;19963;-75
2022/08/27 12:33:37;;;;;;;;;;;;;;;33.64;41.14;99714.47;5002011;28;19913;-77
2022/08/27 12:36:14;;;;;;;;;;;;;;;33.50;40.79;99706.94;5010140;28;19913;-76
2022/08/27 12:38:47;;;;;;;;;;;;;;;33.02;42.17;99706.13;5016572;28;19924;-76
2022/08/27 12:41:37;;;;;;;;;;;;;;;33.01;42.39;99706.66;5020440;28;19913;-77
2022/08/27 12:44:11;;;;;;;;;;;;;;;32.52;42.57;99714.91;5036527;28;20000;-75
2022/08/27 12:47:06;;;;;;;;;;;;;;;32.36;41.94;99712.84;5037341;28;19913;-77
2022/08/27 12:49:45;;;;;;;;;;;;;;;32.63;41.86;99688.97;5021755;28;20248;-76
2022/08/27 12:52:32;;;;;;;;;;;;;;;32.42;41.78;99693.47;5019504;28;20268;-76
2022/08/27 12:55:02;;;;;;;;;;;;;;;33.05;40.04;99699.31;5008750;28;20286;-75
2022/08/27 12:57:27;;;;;;;;;;;;;;;32.56;41.15;99706.78;5019720;28;19913;-76
2022/08/27 13:00:11;;;;;;;;;;;;;;;32.53;41.52;99693.44;5019090;28;19923;-75
2022/08/27 13:02:49;;;;;;;;;;;;;;;33.06;39.92;99697.22;5020457;28;19919;-75
2022/08/27 13:05:22;;;;;;;;;;;;;;;33.40;39.10;99685.50;5037815;28;19952;-76
2022/08/27 13:07:55;;;;;;;;;;;;;;;33.57;38.42;99689.88;5036275;28;19917;-75
2022/08/27 13:10:32;;;;;;;;;;;;;;;32.77;38.84;99681.34;5019379;28;19913;-76